createdAt,value
2023-01-11T00:02:12.329Z,13.85
2023-01-11T00:04:43.053Z,14.35
2023-01-11T00:07:12.276Z,15.38
2023-01-11T00:09:41.522Z,15.15
2023-01-11T00:12:12.504Z,12.90
2023-01-11T00:14:42.087Z,13.73
2023-01-11T00:17:11.159Z,15.70
2023-01-11T00:19:41.916Z,14.77
2023-01-11T00:22:10.884Z,18.33
2023-01-11T00:24:40.319Z,15.82
2023-01-11T00:27:09.292Z,15.52
2023-01-11T00:29:38.889Z,13.70
2023-01-11T00:32:07.944Z,13.32
2023-01-11T00:34:37.606Z,14.23
2023-01-11T00:37:08.008Z,13.90
2023-01-11T00:39:37.672Z,14.85
2023-01-11T00:42:24.203Z,14.32
2023-01-11T00:45:13.457Z,14.35
2023-01-11T00:48:01.875Z,15.90
2023-01-11T00:50:33.379Z,15.02
2023-01-11T00:53:04.831Z,14.95
2023-01-11T00:55:34.929Z,15.05
2023-01-11T00:58:04.128Z,17.58
2023-01-11T01:00:33.519Z,20.60
2023-01-11T01:03:02.539Z,17.90
2023-01-11T01:05:31.845Z,14.93
2023-01-11T01:08:02.301Z,17.13
2023-01-11T01:10:31.712Z,18.92
2023-01-11T01:13:18.214Z,18.93
2023-01-11T01:15:47.996Z,18.27
2023-01-11T01:18:17.063Z,17.83
2023-01-11T01:20:46.576Z,20.73
2023-01-11T01:23:16.961Z,17.67
2023-01-11T01:25:46.364Z,19.95
2023-01-11T01:28:15.368Z,21.52
2023-01-11T01:30:44.638Z,21.90
2023-01-11T01:33:13.869Z,21.73
2023-01-11T01:35:43.166Z,23.73
2023-01-11T01:38:12.399Z,21.65
2023-01-11T01:40:45.323Z,21.25
2023-01-11T01:43:15.939Z,21.67
2023-01-11T01:45:49.941Z,22.05
2023-01-11T01:48:23.144Z,24.13
2023-01-11T01:50:56.786Z,20.67
2023-01-11T01:53:31.858Z,19.55
2023-01-11T01:56:06.456Z,22.45
2023-01-11T01:58:41.155Z,24.80
2023-01-11T02:01:24.433Z,22.85
2023-01-11T02:03:56.026Z,21.10
2023-01-11T02:06:25.766Z,22.25
2023-01-11T02:09:01.433Z,21.48
2023-01-11T02:11:33.645Z,23.85
2023-01-11T02:14:07.306Z,24.73
2023-01-11T02:16:36.873Z,27.40
2023-01-11T02:19:08.885Z,25.90
2023-01-11T02:21:55.727Z,29.25
2023-01-11T02:24:57.643Z,26.83
2023-01-11T02:27:37.230Z,26.35
2023-01-11T02:30:21.579Z,25.50
2023-01-11T02:32:58.607Z,24.98
2023-01-11T02:35:40.269Z,24.77
2023-01-11T02:38:20.930Z,22.33
2023-01-11T02:40:55.316Z,23.42
2023-01-11T02:43:49.624Z,25.40
2023-01-11T02:46:29.361Z,24.63
2023-01-11T02:49:09.790Z,21.33
2023-01-11T02:51:44.447Z,22.17
2023-01-11T02:54:18.660Z,21.05
2023-01-11T02:56:51.261Z,20.95
2023-01-11T02:59:24.332Z,19.85
2023-01-11T03:01:56.114Z,20.15
2023-01-11T03:04:29.892Z,20.23
2023-01-11T03:07:15.157Z,20.90
2023-01-11T03:09:57.369Z,20.48
2023-01-11T03:12:59.671Z,19.17
2023-01-11T03:15:46.730Z,18.45
2023-01-11T03:18:29.449Z,16.92
2023-01-11T03:21:12.565Z,18.85
2023-01-11T03:23:49.978Z,17.50
2023-01-11T03:26:28.016Z,20.10
2023-01-11T03:29:09.859Z,17.92
2023-01-11T03:31:47.515Z,19.52
2023-01-11T03:34:24.804Z,16.67
2023-01-11T03:37:00.678Z,19.10
2023-01-11T03:39:35.150Z,17.10
2023-01-11T03:42:08.328Z,20.20
2023-01-11T03:44:43.747Z,18.48
2023-01-11T03:47:16.882Z,17.80
2023-01-11T03:49:51.456Z,17.33
2023-01-11T03:52:26.186Z,16.83
2023-01-11T03:54:57.531Z,17.83
2023-01-11T03:57:32.208Z,17.33
2023-01-11T04:00:01.660Z,18.83
2023-01-11T04:02:37.558Z,17.45
2023-01-11T04:05:09.427Z,17.63
2023-01-11T04:07:39.194Z,18.08
2023-01-11T04:10:09.304Z,18.48
2023-01-11T04:12:38.721Z,17.38
2023-01-11T04:15:09.487Z,18.90
2023-01-11T04:17:38.829Z,19.92
2023-01-11T04:20:11.025Z,21.13
2023-01-11T04:22:40.566Z,20.80
2023-01-11T04:25:10.139Z,21.67
2023-01-11T04:27:39.544Z,30.00
2023-01-11T04:30:09.882Z,35.37
2023-01-11T04:32:39.364Z,34.55
2023-01-11T04:35:10.685Z,28.90
2023-01-11T04:37:40.136Z,34.50
2023-01-11T04:40:10.652Z,32.73
2023-01-11T04:42:39.182Z,24.77
2023-01-11T04:45:09.030Z,22.83
2023-01-11T04:47:38.453Z,22.15
2023-01-11T04:50:11.854Z,24.08
2023-01-11T04:52:41.949Z,20.45
2023-01-11T04:55:11.372Z,24.00
2023-01-11T04:57:40.824Z,23.90
2023-01-11T05:00:11.689Z,23.83
2023-01-11T05:02:41.781Z,20.92
2023-01-11T05:05:13.106Z,20.50
2023-01-11T05:07:42.573Z,21.08
2023-01-11T05:10:12.507Z,22.98
2023-01-11T05:12:41.892Z,22.73
2023-01-11T05:15:11.686Z,19.47
2023-01-11T05:17:41.080Z,21.20
2023-01-11T05:20:13.072Z,18.43
2023-01-11T05:22:42.550Z,21.55
2023-01-11T05:25:11.785Z,19.47
2023-01-11T05:27:41.204Z,20.25
2023-01-11T05:30:11.949Z,20.40
2023-01-11T05:32:42.230Z,20.08
2023-01-11T05:35:12.926Z,21.58
2023-01-11T05:37:42.323Z,19.17
2023-01-11T05:40:12.764Z,20.73
2023-01-11T05:42:42.221Z,21.27
2023-01-11T05:45:29.105Z,21.13
2023-01-11T05:47:58.895Z,20.25
2023-01-11T05:50:29.502Z,21.80
2023-01-11T05:53:00.832Z,21.20
2023-01-11T05:55:29.998Z,20.65
2023-01-11T05:57:59.344Z,20.45
2023-01-11T06:00:29.086Z,21.40
2023-01-11T06:02:58.539Z,21.58
2023-01-11T06:05:29.243Z,21.58
2023-01-11T06:07:58.495Z,19.50
2023-01-11T06:10:27.460Z,20.53
2023-01-11T06:13:17.001Z,17.52
2023-01-11T06:15:46.124Z,18.30
2023-01-11T06:18:15.606Z,15.13
2023-01-11T06:20:49.803Z,17.02
2023-01-11T06:23:19.364Z,19.58
2023-01-11T06:25:48.665Z,17.63
2023-01-11T06:28:18.302Z,18.00
2023-01-11T06:30:53.897Z,18.60
2023-01-11T06:33:25.345Z,15.45
2023-01-11T06:35:56.844Z,15.15
2023-01-11T06:38:27.216Z,16.58
2023-01-11T06:40:58.013Z,19.38
2023-01-11T06:43:29.187Z,16.63
2023-01-11T06:45:59.523Z,17.92
2023-01-11T06:48:29.515Z,15.20
2023-01-11T06:51:00.829Z,15.95
2023-01-11T06:53:30.444Z,17.80
2023-01-11T06:56:00.111Z,15.85
2023-01-11T06:58:29.936Z,15.20
2023-01-11T07:00:59.699Z,15.98
2023-01-11T07:03:29.442Z,16.42
2023-01-11T07:06:00.606Z,15.47
2023-01-11T07:08:30.201Z,16.17
2023-01-11T07:10:59.268Z,8.27
2023-01-11T07:13:28.780Z,14.98
2023-01-11T07:15:59.490Z,16.48
2023-01-11T07:18:31.660Z,15.63
2023-01-11T07:21:02.712Z,14.38
2023-01-11T07:23:32.098Z,13.95
2023-01-11T07:26:01.162Z,13.27
2023-01-11T07:28:30.850Z,15.55
2023-01-11T07:31:00.277Z,14.23
2023-01-11T07:33:30.018Z,14.10
2023-01-11T07:36:00.791Z,13.35
2023-01-11T07:38:31.793Z,14.38
2023-01-11T07:41:00.759Z,15.02
2023-01-11T07:43:29.130Z,14.55
2023-01-11T07:45:58.736Z,13.55
2023-01-11T07:50:57.287Z,11.43
2023-01-11T07:53:26.653Z,13.48
2023-01-11T07:55:58.462Z,14.13
2023-01-11T07:58:27.891Z,10.32
2023-01-11T08:01:00.236Z,13.50
2023-01-11T08:03:29.782Z,14.30
2023-01-11T08:05:58.942Z,13.35
2023-01-11T08:08:28.380Z,12.93
2023-01-11T08:11:12.578Z,10.20
2023-01-11T08:13:59.455Z,13.40
2023-01-11T08:16:28.538Z,11.45
2023-01-11T08:18:58.081Z,14.88
2023-01-11T08:21:27.159Z,13.35
2023-01-11T08:23:57.146Z,12.23
2023-01-11T08:26:28.709Z,14.55
2023-01-11T08:28:58.276Z,13.88
2023-01-11T08:31:27.625Z,12.30
2023-01-11T08:36:27.516Z,10.67
2023-01-11T08:38:57.637Z,13.60
2023-01-11T08:41:28.139Z,12.70
2023-01-11T08:43:57.871Z,12.27
2023-01-11T08:46:27.113Z,13.35
2023-01-11T08:51:25.470Z,12.50
2023-01-11T08:53:55.310Z,11.85
2023-01-11T08:56:24.426Z,11.77
2023-01-11T08:58:55.050Z,10.63
2023-01-11T09:01:24.143Z,13.55
2023-01-11T09:03:53.397Z,12.32
2023-01-11T09:06:22.619Z,11.52
2023-01-11T09:08:51.998Z,9.60
2023-01-11T09:11:39.236Z,11.77
2023-01-11T09:14:10.124Z,9.68
2023-01-11T09:16:39.265Z,11.52
2023-01-11T09:19:08.543Z,11.82
2023-01-11T09:21:37.640Z,10.63
2023-01-11T09:24:07.634Z,10.60
2023-01-11T09:29:09.083Z,6.18
2023-01-11T09:31:38.341Z,9.95
2023-01-11T09:34:10.923Z,8.82
2023-01-11T09:36:41.001Z,10.18
2023-01-11T09:39:14.585Z,10.77
2023-01-11T09:42:00.944Z,9.55
2023-01-11T09:44:33.978Z,11.75
2023-01-11T09:47:13.882Z,10.10
2023-01-11T09:49:50.957Z,10.48
2023-01-11T09:52:29.363Z,9.38
2023-01-11T09:54:59.897Z,10.88
2023-01-11T09:57:47.572Z,11.80
2023-01-11T10:00:28.998Z,9.82
2023-01-11T10:03:30.872Z,8.93
2023-01-11T10:06:10.268Z,9.25
2023-01-11T10:18:22.928Z,10.38
2023-01-11T10:18:32.231Z,8.90
2023-01-11T10:21:11.076Z,8.75
2023-01-11T10:23:50.409Z,10.32
2023-01-11T10:26:29.184Z,8.20
2023-01-11T10:29:22.386Z,7.47
2023-01-11T10:32:11.114Z,8.18
2023-01-11T10:34:59.636Z,8.05
2023-01-11T10:37:59.796Z,10.10
2023-01-11T10:40:39.952Z,7.95
2023-01-11T10:45:49.875Z,7.90
2023-01-11T10:48:25.433Z,8.55
2023-01-11T10:51:06.583Z,7.55
2023-01-11T10:53:40.550Z,8.63
2023-01-11T10:56:22.799Z,9.15
2023-01-11T10:59:07.643Z,7.40
2023-01-11T11:01:54.337Z,8.32
2023-01-11T11:04:40.841Z,8.82
2023-01-11T11:07:19.760Z,9.75
2023-01-11T11:09:59.613Z,8.10
2023-01-11T11:12:32.807Z,8.23
2023-01-11T11:15:10.208Z,9.25
2023-01-11T11:17:41.466Z,8.77
2023-01-11T11:20:15.429Z,11.20
2023-01-11T11:22:46.492Z,7.78
2023-01-11T11:25:19.625Z,9.95
2023-01-11T11:27:52.478Z,7.88
2023-01-11T11:30:30.601Z,9.18
2023-01-11T11:33:02.980Z,7.28
2023-01-11T11:35:40.911Z,10.20
2023-01-11T11:38:22.485Z,7.28
2023-01-11T11:41:04.997Z,9.98
2023-01-11T11:43:35.325Z,9.15
2023-01-11T11:46:06.567Z,8.57
2023-01-11T11:48:36.946Z,9.85
2023-01-11T11:51:11.690Z,9.95
2023-01-11T11:53:47.131Z,5.20
2023-01-11T11:56:21.255Z,9.73
2023-01-11T11:58:51.334Z,9.63
2023-01-11T12:01:31.044Z,7.57
2023-01-11T12:04:03.053Z,9.82
2023-01-11T12:06:32.907Z,9.30
2023-01-11T12:09:05.181Z,9.30
2023-01-11T12:11:38.212Z,10.20
2023-01-11T12:14:18.279Z,12.65
2023-01-11T12:16:48.415Z,9.48
2023-01-11T12:19:29.474Z,8.25
2023-01-11T12:22:18.304Z,5.20
2023-01-11T12:25:03.429Z,9.10
2023-01-11T12:27:43.858Z,8.13
2023-01-11T12:30:25.768Z,7.55
2023-01-11T12:33:22.945Z,10.27
2023-01-11T12:36:03.308Z,9.60
2023-01-11T12:38:47.152Z,8.18
2023-01-11T12:41:50.211Z,8.90
2023-01-11T12:44:48.756Z,7.30
2023-01-11T12:47:43.997Z,9.13
2023-01-11T12:50:19.824Z,8.45
2023-01-11T12:53:05.049Z,11.38
2023-01-11T12:55:50.347Z,8.52
2023-01-11T12:58:29.776Z,9.15
2023-01-11T13:01:13.772Z,10.95
2023-01-11T13:04:20.270Z,7.75
2023-01-11T13:06:59.880Z,10.07
2023-01-11T13:12:11.728Z,9.88
2023-01-11T13:15:02.169Z,9.10
2023-01-11T13:17:52.480Z,10.90
2023-01-11T13:20:30.900Z,9.00
2023-01-11T13:23:05.569Z,8.95
2023-01-11T13:25:39.548Z,8.60
2023-01-11T13:28:24.396Z,9.68
2023-01-11T13:30:56.260Z,8.57
2023-01-11T13:33:31.126Z,8.55
2023-01-11T13:36:15.084Z,8.95
2023-01-11T13:38:57.671Z,10.45
2023-01-11T13:41:32.927Z,9.30
2023-01-11T13:44:07.519Z,8.07
2023-01-11T13:47:06.265Z,8.23
2023-01-11T13:49:52.769Z,8.77
2023-01-11T13:52:28.913Z,8.55
2023-01-11T13:55:07.222Z,9.65
2023-01-11T13:57:47.804Z,9.75
2023-01-11T14:00:25.357Z,9.63
2023-01-11T14:03:04.478Z,8.98
2023-01-11T14:05:42.783Z,9.88
2023-01-11T14:08:43.739Z,8.65
2023-01-11T14:11:22.753Z,9.50
2023-01-11T14:14:18.031Z,5.55
2023-01-11T14:17:20.807Z,10.07
2023-01-11T14:19:58.238Z,9.32
2023-01-11T14:22:37.439Z,10.30
2023-01-11T14:25:16.112Z,9.43
2023-01-11T14:28:01.629Z,9.35
2023-01-11T14:30:49.372Z,9.25
2023-01-11T14:33:53.116Z,9.75
2023-01-11T14:36:55.780Z,9.82
2023-01-11T14:40:09.665Z,10.52
2023-01-11T14:43:24.098Z,9.20
2023-01-11T14:46:31.527Z,9.50
2023-01-11T14:49:14.890Z,8.73
2023-01-11T14:51:57.113Z,10.93
2023-01-11T14:54:29.633Z,10.02
2023-01-11T14:56:59.912Z,10.07
2023-01-11T14:59:40.767Z,10.25
2023-01-11T15:02:27.294Z,10.32
2023-01-11T15:05:08.545Z,8.88
2023-01-11T15:07:44.733Z,11.48
2023-01-11T15:10:50.757Z,6.65
2023-01-11T15:13:24.658Z,10.30
2023-01-11T15:16:25.107Z,10.57
2023-01-11T15:18:55.844Z,9.60
2023-01-11T15:21:27.966Z,10.68
2023-01-11T15:23:59.925Z,10.10
2023-01-11T15:26:29.429Z,10.73
2023-01-11T15:29:01.197Z,10.63
2023-01-11T15:31:39.053Z,9.50
2023-01-11T15:34:24.788Z,9.52
2023-01-11T15:37:24.988Z,10.18
2023-01-11T15:40:00.396Z,9.45
2023-01-11T15:43:03.539Z,9.20
2023-01-11T15:46:24.595Z,9.73
2023-01-11T15:49:30.030Z,11.18
2023-01-11T15:52:29.656Z,10.13
2023-01-11T15:55:32.320Z,9.50
2023-01-11T15:58:24.073Z,11.65
2023-01-11T16:01:21.547Z,9.98
2023-01-11T16:04:01.092Z,10.90
2023-01-11T16:09:33.037Z,10.00
2023-01-11T16:12:29.458Z,10.23
2023-01-11T16:15:27.416Z,10.10
2023-01-11T16:18:05.862Z,10.95
2023-01-11T16:20:37.745Z,10.18
2023-01-11T16:23:08.779Z,10.40
2023-01-11T16:25:44.742Z,11.95
2023-01-11T16:28:18.065Z,9.98
2023-01-11T16:30:48.129Z,9.00
2023-01-11T16:33:21.645Z,11.15
2023-01-11T16:35:51.130Z,10.05
2023-01-11T16:38:23.605Z,10.90
2023-01-11T16:40:55.672Z,11.77
2023-01-11T16:43:29.828Z,9.95
2023-01-11T16:46:00.316Z,10.50
2023-01-11T16:48:30.949Z,11.10
2023-01-11T16:51:03.786Z,8.73
2023-01-11T16:53:34.369Z,9.75
2023-01-11T16:56:06.692Z,9.88
2023-01-11T16:58:39.007Z,9.80
2023-01-11T17:01:10.321Z,10.70
2023-01-11T17:03:50.057Z,11.65
2023-01-11T17:06:21.764Z,12.02
2023-01-11T17:08:52.757Z,10.02
2023-01-11T17:11:36.452Z,12.07
2023-01-11T17:14:45.414Z,10.07
2023-01-11T17:17:16.943Z,10.05
2023-01-11T17:19:49.183Z,10.88
2023-01-11T17:22:22.924Z,10.95
2023-01-11T17:24:56.181Z,10.57
2023-01-11T17:27:28.997Z,11.02
2023-01-11T17:30:00.700Z,9.88
2023-01-11T17:32:39.137Z,10.85
2023-01-11T17:35:16.089Z,11.00
2023-01-11T17:37:47.683Z,9.98
2023-01-11T17:40:25.105Z,9.35
2023-01-11T17:43:15.245Z,11.48
2023-01-11T17:45:47.072Z,10.05
2023-01-11T17:48:20.508Z,9.25
2023-01-11T17:50:54.588Z,10.18
2023-01-11T17:53:26.814Z,9.70
2023-01-11T17:55:57.656Z,9.05
2023-01-11T17:58:28.374Z,11.57
2023-01-11T18:01:18.212Z,10.30
2023-01-11T18:03:50.992Z,8.90
2023-01-11T18:06:28.283Z,10.93
2023-01-11T18:08:59.265Z,11.73
2023-01-11T18:11:31.400Z,10.52
2023-01-11T18:14:03.662Z,9.65
2023-01-11T18:16:33.689Z,11.15
2023-01-11T18:19:25.677Z,10.02
2023-01-11T18:21:55.700Z,10.18
2023-01-11T18:27:16.067Z,10.95
2023-01-11T18:29:53.887Z,10.32
2023-01-11T18:32:26.132Z,10.20
2023-01-11T18:35:01.098Z,10.73
2023-01-11T18:37:32.645Z,9.30
2023-01-11T18:40:04.553Z,10.80
2023-01-11T18:42:37.556Z,10.35
2023-01-11T18:45:14.792Z,9.68
2023-01-11T18:47:46.030Z,10.35
2023-01-11T18:50:20.062Z,8.82
2023-01-11T18:52:50.154Z,8.73
2023-01-11T18:55:19.466Z,10.25
2023-01-11T18:57:51.361Z,11.02
2023-01-11T19:00:21.081Z,11.15
2023-01-11T19:02:54.345Z,11.95
2023-01-11T19:05:24.860Z,11.55
2023-01-11T19:07:54.279Z,11.95
2023-01-11T19:10:24.519Z,11.18
2023-01-11T19:12:54.254Z,10.75
2023-01-11T19:15:23.437Z,11.05
2023-01-11T19:17:52.821Z,10.02
2023-01-11T19:20:23.850Z,10.82
2023-01-11T19:22:53.344Z,12.02
2023-01-11T19:25:22.356Z,11.80
2023-01-11T19:30:26.597Z,10.88
2023-01-11T19:32:56.329Z,11.60
2023-01-11T19:35:26.745Z,11.95
2023-01-11T19:37:56.193Z,12.77
2023-01-11T19:40:25.317Z,11.73
2023-01-11T19:42:56.215Z,12.18
2023-01-11T19:47:54.631Z,13.35
2023-01-11T19:50:26.059Z,14.50
2023-01-11T19:52:56.202Z,13.88
2023-01-11T19:55:25.617Z,12.35
2023-01-11T19:57:54.908Z,11.75
2023-01-11T20:00:23.998Z,11.02
2023-01-11T20:02:54.848Z,12.45
2023-01-11T20:05:25.355Z,14.48
2023-01-11T20:07:56.015Z,10.55
2023-01-11T20:10:25.421Z,13.48
2023-01-11T20:12:54.719Z,13.27
2023-01-11T20:15:24.578Z,11.15
2023-01-11T20:17:54.034Z,10.98
2023-01-11T20:20:23.432Z,12.30
2023-01-11T20:22:54.374Z,13.05
2023-01-11T20:25:23.779Z,11.55
2023-01-11T20:27:53.105Z,11.02
2023-01-11T20:30:22.383Z,12.50
2023-01-11T20:32:51.931Z,11.38
2023-01-11T20:35:21.218Z,10.77
2023-01-11T20:37:50.824Z,12.27
2023-01-11T20:40:21.882Z,10.82
2023-01-11T20:42:52.392Z,11.00
2023-01-11T20:45:21.401Z,10.32
2023-01-11T20:47:50.751Z,10.82
2023-01-11T20:50:20.443Z,10.63
2023-01-11T20:52:53.013Z,10.80
2023-01-11T20:55:24.072Z,9.45
2023-01-11T20:57:55.080Z,8.25
2023-01-11T21:00:24.933Z,10.93
2023-01-11T21:02:54.470Z,10.20
2023-01-11T21:05:23.624Z,10.95
2023-01-11T21:07:54.570Z,10.95
2023-01-11T21:10:25.379Z,9.48
2023-01-11T21:12:56.725Z,11.68
2023-01-11T21:15:26.397Z,11.50
2023-01-11T21:17:55.910Z,9.90
2023-01-11T21:20:25.948Z,10.15
2023-01-11T21:22:55.199Z,9.80
2023-01-11T21:25:26.118Z,9.25
2023-01-11T21:27:59.611Z,10.55
2023-01-11T21:30:28.882Z,8.30
2023-01-11T21:32:59.085Z,9.40
2023-01-11T21:35:28.284Z,10.40
2023-01-11T21:37:57.902Z,10.60
2023-01-11T21:40:30.141Z,8.52
2023-01-11T21:43:00.325Z,9.98
2023-01-11T21:45:30.042Z,8.90
2023-01-11T21:47:59.295Z,9.10
2023-01-11T21:50:28.494Z,8.50
2023-01-11T21:52:58.055Z,9.35
2023-01-11T21:55:28.637Z,8.40
2023-01-11T21:57:58.055Z,8.40
2023-01-11T22:00:29.537Z,8.02
2023-01-11T22:02:59.901Z,8.00
2023-01-11T22:05:29.597Z,7.90
2023-01-11T22:07:58.918Z,8.20
2023-01-11T22:10:30.197Z,6.05
2023-01-11T22:12:59.568Z,6.50
2023-01-11T22:15:28.581Z,6.28
2023-01-11T22:17:57.865Z,7.63
2023-01-11T22:20:26.835Z,6.10
2023-01-11T22:22:56.749Z,7.80
2023-01-11T22:25:27.933Z,6.95
2023-01-11T22:27:57.659Z,5.78
2023-01-11T22:30:26.701Z,5.93
2023-01-11T22:32:56.056Z,6.15
2023-01-11T22:35:25.011Z,6.60
2023-01-11T22:37:54.508Z,5.30
2023-01-11T22:40:23.825Z,5.85
2023-01-11T22:42:54.496Z,6.28
2023-01-11T22:45:23.954Z,5.32
2023-01-11T22:47:53.706Z,7.47
2023-01-11T22:50:22.901Z,7.35
2023-01-11T22:52:52.827Z,8.50
2023-01-11T22:55:21.921Z,7.13
2023-01-11T22:57:51.282Z,8.35
2023-01-11T23:00:22.411Z,9.05
2023-01-11T23:02:51.873Z,8.35
2023-01-11T23:05:21.145Z,7.82
2023-01-11T23:07:50.713Z,8.10
2023-01-11T23:10:20.267Z,7.18
2023-01-11T23:13:09.079Z,7.82
2023-01-11T23:15:41.566Z,8.15
2023-01-11T23:18:10.994Z,9.00
2023-01-11T23:20:39.960Z,9.60
2023-01-11T23:23:09.529Z,8.15
2023-01-11T23:25:38.619Z,7.97
2023-01-11T23:28:08.405Z,7.15
2023-01-11T23:30:38.043Z,8.55
2023-01-11T23:35:39.261Z,8.25
2023-01-11T23:38:09.009Z,6.93
2023-01-11T23:40:58.936Z,7.63
2023-01-11T23:43:27.470Z,4.70
2023-01-11T23:46:16.547Z,8.02
2023-01-11T23:48:46.267Z,7.57
2023-01-11T23:51:15.236Z,7.95
2023-01-11T23:53:44.654Z,7.47
2023-01-11T23:56:13.674Z,8.68
2023-01-11T23:58:43.033Z,5.57
